De Berry, Texas
Current Conditions -  °F | °C
As of 1:55 AM on Saturday 20 Dec 2014 (Local Time) from KASL Reporting Station
Overcast Overcast  
Wind Chill: 48°   Ceiling: 1000
Heat Index: 48°   Visibility: 7mi
Dew Point: 46°   Wind: 0mph
Humidity: 90%   Direction: NA
Pressure: 30.21"   Gusts: NA
Location:  32.3°N, 94.17°W
Report Text: KASL 200755Z AUTO 00000KT 7SM OVC010 09/08 A3021 RMK AO1 T00900075
Loading
Personal Weather Stations






























Interactive Weather Map New forecast layout! Learn more

10-Day Weather Forecast

Advertisements
Track Severe Weather on mobile